createdAt,value
2023-05-08T00:01:24.238Z,14.28
2023-05-08T00:03:57.659Z,14.24
2023-05-08T00:06:27.463Z,14.22
2023-05-08T00:08:59.989Z,14.22
2023-05-08T00:11:28.583Z,14.27
2023-05-08T00:13:58.141Z,14.32
2023-05-08T00:16:27.066Z,14.32
2023-05-08T00:18:56.164Z,14.29
2023-05-08T00:21:24.780Z,14.27
2023-05-08T00:23:54.672Z,14.25
2023-05-08T00:26:24.547Z,14.23
2023-05-08T00:28:52.855Z,14.23
2023-05-08T00:31:21.230Z,14.20
2023-05-08T00:33:49.378Z,14.21
2023-05-08T00:36:18.226Z,14.19
2023-05-08T00:38:47.568Z,14.18
2023-05-08T00:41:16.345Z,14.18
2023-05-08T00:43:45.910Z,14.17
2023-05-08T00:46:14.913Z,14.16
2023-05-08T00:48:44.666Z,14.16
2023-05-08T00:51:13.410Z,14.18
2023-05-08T00:53:45.204Z,14.19
2023-05-08T00:56:16.863Z,14.20
2023-05-08T00:58:46.842Z,14.22
2023-05-08T01:01:15.929Z,14.24
2023-05-08T01:03:44.652Z,14.22
2023-05-08T01:06:13.905Z,14.23
2023-05-08T01:08:45.204Z,14.25
2023-05-08T01:11:21.785Z,14.25
2023-05-08T01:14:03.246Z,14.28
2023-05-08T01:16:40.186Z,14.27
2023-05-08T01:19:31.740Z,14.28
2023-05-08T01:22:07.678Z,14.29
2023-05-08T01:25:13.491Z,14.30
2023-05-08T01:28:01.222Z,14.30
2023-05-08T01:31:00.670Z,14.30
2023-05-08T01:33:36.445Z,14.31
2023-05-08T01:36:18.798Z,14.32
2023-05-08T01:38:54.863Z,14.32
2023-05-08T01:41:28.417Z,14.35
2023-05-08T01:44:08.269Z,14.34
2023-05-08T01:46:36.768Z,14.32
2023-05-08T01:49:10.167Z,14.34
2023-05-08T01:51:43.736Z,14.32
2023-05-08T01:54:16.025Z,14.29
2023-05-08T01:56:47.842Z,14.28
2023-05-08T01:59:22.148Z,14.29
2023-05-08T02:01:53.860Z,14.28
2023-05-08T02:04:25.135Z,14.26
2023-05-08T02:06:54.593Z,14.25
2023-05-08T02:09:25.114Z,14.26
2023-05-08T02:11:55.651Z,14.22
2023-05-08T02:14:26.334Z,14.18
2023-05-08T02:16:56.946Z,14.17
2023-05-08T02:19:30.473Z,14.17
2023-05-08T02:22:01.007Z,14.19
2023-05-08T02:24:33.523Z,14.22
2023-05-08T02:27:02.340Z,14.21
2023-05-08T02:29:31.917Z,14.18
2023-05-08T02:32:03.522Z,14.13
2023-05-08T02:34:33.434Z,14.08
2023-05-08T02:37:03.607Z,14.08
2023-05-08T02:39:33.624Z,14.10
2023-05-08T02:42:02.354Z,14.03
2023-05-08T02:44:31.398Z,14.06
2023-05-08T02:47:07.286Z,14.03
2023-05-08T02:49:48.771Z,14.01
2023-05-08T02:52:24.336Z,13.98
2023-05-08T02:54:59.708Z,14.01
2023-05-08T02:57:37.216Z,14.07
2023-05-08T03:00:13.433Z,14.03
2023-05-08T03:02:47.068Z,13.97
2023-05-08T03:05:20.879Z,13.91
2023-05-08T03:07:54.926Z,13.95
2023-05-08T03:10:29.562Z,13.98
2023-05-08T03:12:59.606Z,13.97
2023-05-08T03:15:36.768Z,13.97
2023-05-08T03:18:09.172Z,13.95
2023-05-08T03:20:44.806Z,13.91
2023-05-08T03:23:14.830Z,13.89
2023-05-08T03:25:44.524Z,13.93
2023-05-08T03:28:14.854Z,13.90
2023-05-08T03:30:44.743Z,13.83
2023-05-08T03:33:18.876Z,13.81
2023-05-08T03:35:51.006Z,13.84
2023-05-08T03:38:19.884Z,13.85
2023-05-08T03:40:50.338Z,13.76
2023-05-08T03:43:23.895Z,13.77
2023-05-08T03:45:52.930Z,13.79
2023-05-08T03:48:26.806Z,13.80
2023-05-08T03:50:58.717Z,13.74
2023-05-08T03:53:27.317Z,13.77
2023-05-08T03:55:58.315Z,13.77
2023-05-08T03:58:33.807Z,13.80
2023-05-08T04:01:08.956Z,13.82
2023-05-08T04:04:01.214Z,13.83
2023-05-08T04:06:49.293Z,13.82
2023-05-08T04:09:28.259Z,13.84
2023-05-08T04:14:53.596Z,13.81
2023-05-08T04:17:30.448Z,13.84
2023-05-08T04:20:04.234Z,13.84
2023-05-08T04:22:35.777Z,13.85
2023-05-08T04:25:07.297Z,13.87
2023-05-08T04:27:40.874Z,13.89
2023-05-08T04:30:12.100Z,13.90
2023-05-08T04:32:43.472Z,13.91
2023-05-08T04:35:14.584Z,13.94
2023-05-08T04:37:45.020Z,13.94
2023-05-08T04:40:14.345Z,13.96
2023-05-08T04:42:47.438Z,13.97
2023-05-08T04:45:18.515Z,13.98
2023-05-08T04:47:47.353Z,14.00
2023-05-08T04:50:16.208Z,13.99
2023-05-08T04:52:46.155Z,13.99
2023-05-08T04:55:14.667Z,13.98
2023-05-08T04:57:44.403Z,13.98
2023-05-08T05:00:14.064Z,13.98
2023-05-08T05:02:44.194Z,14.02
2023-05-08T05:05:13.768Z,14.02
2023-05-08T05:07:42.941Z,14.03
2023-05-08T05:10:14.093Z,14.05
2023-05-08T05:12:42.450Z,14.06
2023-05-08T05:15:11.999Z,14.08
2023-05-08T05:17:41.629Z,14.09
2023-05-08T05:20:13.354Z,14.11
2023-05-08T05:22:42.083Z,14.12
2023-05-08T05:25:22.734Z,14.13
2023-05-08T05:27:54.500Z,14.17
2023-05-08T05:30:24.676Z,14.19
2023-05-08T05:32:53.416Z,14.21
2023-05-08T05:38:28.979Z,14.30
2023-05-08T05:40:57.642Z,14.34
2023-05-08T05:43:29.942Z,14.40
2023-05-08T05:46:05.196Z,14.38
2023-05-08T05:48:34.122Z,14.29
2023-05-08T05:51:03.550Z,14.38
2023-05-08T05:53:31.798Z,14.37
2023-05-08T05:56:00.448Z,14.34
2023-05-08T05:58:30.485Z,14.33
2023-05-08T06:01:02.143Z,14.31
2023-05-08T06:03:31.939Z,14.10
2023-05-08T06:06:00.695Z,14.19
2023-05-08T06:08:28.899Z,14.15
2023-05-08T06:10:58.202Z,14.20
2023-05-08T06:13:28.041Z,14.23
2023-05-08T06:15:59.313Z,14.24
2023-05-08T06:18:29.012Z,14.30
2023-05-08T06:20:58.121Z,14.32
2023-05-08T06:23:26.916Z,14.30
2023-05-08T06:25:56.101Z,14.35
2023-05-08T06:28:26.220Z,14.44
2023-05-08T06:30:55.146Z,14.49
2023-05-08T06:33:26.769Z,14.53
2023-05-08T06:35:55.927Z,14.57
2023-05-08T06:38:24.239Z,14.61
2023-05-08T06:40:55.334Z,14.62
2023-05-08T06:43:24.400Z,14.66
2023-05-08T06:45:53.462Z,14.70
2023-05-08T06:48:21.790Z,14.75
2023-05-08T06:50:52.461Z,14.76
2023-05-08T06:53:20.852Z,14.79
2023-05-08T06:55:49.423Z,14.80
2023-05-08T06:58:18.100Z,14.81
2023-05-08T07:00:46.197Z,14.86
2023-05-08T07:03:14.460Z,14.82
2023-05-08T07:05:43.417Z,14.81
2023-05-08T07:08:13.139Z,14.89
2023-05-08T07:10:41.321Z,14.92
2023-05-08T07:13:09.572Z,14.95
2023-05-08T07:15:38.882Z,14.98
2023-05-08T07:18:07.588Z,14.98
2023-05-08T07:20:37.135Z,15.03
2023-05-08T07:23:05.624Z,14.91
2023-05-08T07:25:36.488Z,14.92
2023-05-08T07:28:05.213Z,14.91
2023-05-08T07:30:33.790Z,14.94
2023-05-08T07:33:03.131Z,14.93
2023-05-08T07:35:31.496Z,14.92
2023-05-08T07:38:01.113Z,14.94
2023-05-08T07:40:30.225Z,14.95
2023-05-08T07:43:00.237Z,14.99
2023-05-08T07:45:29.485Z,15.01
2023-05-08T07:48:00.296Z,15.03
2023-05-08T07:50:28.885Z,15.16
2023-05-08T07:52:57.145Z,15.21
2023-05-08T07:55:25.988Z,15.18
2023-05-08T07:57:54.349Z,15.37
2023-05-08T08:00:24.779Z,15.49
2023-05-08T08:02:53.195Z,15.58
2023-05-08T08:05:22.419Z,15.58
2023-05-08T08:07:51.122Z,15.57
2023-05-08T08:10:19.232Z,15.64
2023-05-08T08:12:47.899Z,15.62
2023-05-08T08:15:16.636Z,15.85
2023-05-08T08:17:46.475Z,15.97
2023-05-08T08:20:16.417Z,16.17
2023-05-08T08:22:45.189Z,16.17
2023-05-08T08:25:13.623Z,16.21
2023-05-08T08:27:41.930Z,16.16
2023-05-08T08:30:17.663Z,16.36
2023-05-08T08:32:48.685Z,16.52
2023-05-08T08:35:17.466Z,16.80
2023-05-08T08:37:46.137Z,17.03
2023-05-08T08:40:14.767Z,16.94
2023-05-08T08:42:43.072Z,17.18
2023-05-08T08:45:12.493Z,16.94
2023-05-08T08:47:45.205Z,17.17
2023-05-08T08:50:16.526Z,17.27
2023-05-08T08:52:54.447Z,17.40
2023-05-08T08:55:24.463Z,17.24
2023-05-08T08:58:01.051Z,17.53
2023-05-08T09:00:32.501Z,17.77
2023-05-08T09:03:04.641Z,18.09
2023-05-08T09:05:34.641Z,18.48
2023-05-08T09:08:03.649Z,18.53
2023-05-08T09:10:32.035Z,18.65
2023-05-08T09:13:00.272Z,18.45
2023-05-08T09:15:28.586Z,18.66
2023-05-08T09:17:56.900Z,18.98
2023-05-08T09:20:26.725Z,18.93
2023-05-08T09:22:58.013Z,18.84
2023-05-08T09:25:26.570Z,18.70
2023-05-08T09:27:54.701Z,18.99
2023-05-08T09:31:14.725Z,19.07
2023-05-08T09:33:46.036Z,19.17
2023-05-08T09:36:27.720Z,19.37
2023-05-08T09:38:57.747Z,19.37
2023-05-08T09:41:26.667Z,19.50
2023-05-08T09:44:03.683Z,19.41
2023-05-08T09:46:34.047Z,19.80
2023-05-08T09:49:04.000Z,19.73
2023-05-08T09:51:33.437Z,19.45
2023-05-08T09:54:05.809Z,19.69
2023-05-08T09:56:35.785Z,19.77
2023-05-08T09:59:06.353Z,19.86
2023-05-08T10:01:36.611Z,19.48
2023-05-08T10:04:06.234Z,20.12
2023-05-08T10:06:36.767Z,20.04
2023-05-08T10:09:11.763Z,19.96
2023-05-08T10:11:41.681Z,19.93
2023-05-08T10:14:10.809Z,19.51
2023-05-08T10:16:45.156Z,19.57
2023-05-08T10:19:15.634Z,19.71
2023-05-08T10:21:47.934Z,19.99
2023-05-08T10:24:21.011Z,19.93
2023-05-08T10:27:06.281Z,19.69
2023-05-08T10:29:43.242Z,20.09
2023-05-08T10:32:14.287Z,20.12
2023-05-08T10:34:45.065Z,19.75
2023-05-08T10:37:14.017Z,19.27
2023-05-08T10:39:45.795Z,19.28
2023-05-08T10:42:15.234Z,19.20
2023-05-08T10:44:44.723Z,19.32
2023-05-08T10:47:18.852Z,19.27
2023-05-08T10:49:54.406Z,19.40
2023-05-08T10:52:33.157Z,19.81
2023-05-08T10:55:17.675Z,19.54
2023-05-08T10:58:04.774Z,19.56
2023-05-08T11:00:34.612Z,20.03
2023-05-08T11:03:20.239Z,20.61
2023-05-08T11:05:57.392Z,20.92
2023-05-08T11:08:31.107Z,21.14
2023-05-08T11:11:10.641Z,20.84
2023-05-08T11:13:40.432Z,20.45
2023-05-08T11:16:11.023Z,20.97
2023-05-08T11:18:49.109Z,20.99
2023-05-08T11:21:22.837Z,21.26
2023-05-08T11:23:58.351Z,21.42
2023-05-08T11:26:41.269Z,20.96
2023-05-08T11:29:18.514Z,20.74
2023-05-08T11:31:54.069Z,20.48
2023-05-08T11:34:48.979Z,20.81
2023-05-08T11:37:24.731Z,20.69
2023-05-08T11:39:53.107Z,21.13
2023-05-08T11:42:37.902Z,21.35
2023-05-08T11:45:07.809Z,21.60
2023-05-08T11:47:39.733Z,21.19
2023-05-08T11:50:10.576Z,20.72
2023-05-08T11:52:40.892Z,20.55
2023-05-08T11:55:10.996Z,20.19
2023-05-08T11:57:40.934Z,19.77
2023-05-08T12:00:11.495Z,19.81
2023-05-08T12:02:41.778Z,19.54
2023-05-08T12:05:11.505Z,19.33
2023-05-08T12:07:46.666Z,19.36
2023-05-08T12:10:18.304Z,19.09
2023-05-08T12:12:48.404Z,18.69
2023-05-08T12:15:16.952Z,18.65
2023-05-08T12:17:45.291Z,18.51
2023-05-08T12:20:15.718Z,18.41
2023-05-08T12:22:52.224Z,18.34
2023-05-08T12:25:20.799Z,18.29
2023-05-08T12:27:50.648Z,18.50
2023-05-08T12:30:19.597Z,18.33
2023-05-08T12:32:50.166Z,18.10
2023-05-08T12:35:19.126Z,17.72
2023-05-08T12:37:47.659Z,17.78
2023-05-08T12:40:30.933Z,17.71
2023-05-08T12:43:02.357Z,17.70
2023-05-08T12:45:33.628Z,17.74
2023-05-08T12:48:03.651Z,17.70
2023-05-08T12:50:36.336Z,17.54
2023-05-08T12:53:05.652Z,17.48
2023-05-08T12:55:35.513Z,17.56
2023-05-08T12:58:06.762Z,17.67
2023-05-08T13:00:37.399Z,17.57
2023-05-08T13:03:08.668Z,17.70
2023-05-08T13:05:38.425Z,17.50
2023-05-08T13:08:09.446Z,17.42
2023-05-08T13:10:48.295Z,17.51
2023-05-08T13:13:20.079Z,17.58
2023-05-08T13:15:49.839Z,17.57
2023-05-08T13:18:19.119Z,17.58
2023-05-08T13:20:48.063Z,17.76
2023-05-08T13:23:17.791Z,17.93
2023-05-08T13:25:45.995Z,17.67
2023-05-08T13:28:14.886Z,17.70
2023-05-08T13:30:44.949Z,17.65
2023-05-08T13:33:13.110Z,17.65
2023-05-08T13:35:41.503Z,17.58
2023-05-08T13:38:09.730Z,17.54
2023-05-08T13:40:38.223Z,17.56
2023-05-08T13:43:06.570Z,17.39
2023-05-08T13:45:35.157Z,17.48
2023-05-08T13:48:05.402Z,17.67
2023-05-08T13:50:33.988Z,17.88
2023-05-08T13:53:02.501Z,18.22
2023-05-08T13:55:30.586Z,18.45
2023-05-08T13:58:00.376Z,18.82
2023-05-08T14:00:28.998Z,18.62
2023-05-08T14:02:57.816Z,18.84
2023-05-08T14:05:27.828Z,18.86
2023-05-08T14:07:56.564Z,18.33
2023-05-08T14:10:25.356Z,18.41
2023-05-08T14:12:53.533Z,18.79
2023-05-08T14:15:26.865Z,18.63
2023-05-08T14:18:24.504Z,18.73
2023-05-08T14:20:57.443Z,18.80
2023-05-08T14:23:25.837Z,18.44
2023-05-08T14:26:19.623Z,18.48
2023-05-08T14:28:47.982Z,18.23
2023-05-08T14:31:16.618Z,18.14
2023-05-08T14:33:44.794Z,18.09
2023-05-08T14:36:14.595Z,17.89
2023-05-08T14:38:43.053Z,17.72
2023-05-08T14:41:15.551Z,18.15
2023-05-08T14:43:44.933Z,18.44
2023-05-08T14:46:13.368Z,18.72
2023-05-08T14:48:41.955Z,18.64
2023-05-08T14:51:12.078Z,19.24
2023-05-08T14:53:42.130Z,19.98
2023-05-08T14:56:11.035Z,20.24
2023-05-08T14:58:39.536Z,20.74
2023-05-08T15:01:07.755Z,20.89
2023-05-08T15:03:36.725Z,20.17
2023-05-08T15:06:05.906Z,20.39
2023-05-08T15:08:34.069Z,20.19
2023-05-08T15:11:04.271Z,20.00
2023-05-08T15:13:32.779Z,20.04
2023-05-08T15:16:01.484Z,20.02
2023-05-08T15:18:29.677Z,19.73
2023-05-08T15:20:59.697Z,19.63
2023-05-08T15:23:28.025Z,19.50
2023-05-08T15:25:56.207Z,18.97
2023-05-08T15:28:25.973Z,18.73
2023-05-08T15:30:54.661Z,18.64
2023-05-08T15:33:22.978Z,18.65
2023-05-08T15:35:51.134Z,19.04
2023-05-08T15:38:20.414Z,18.94
2023-05-08T15:40:48.841Z,18.74
2023-05-08T15:43:17.108Z,18.52
2023-05-08T15:45:46.907Z,18.20
2023-05-08T15:48:15.413Z,18.73
2023-05-08T15:50:43.674Z,18.56
2023-05-08T15:53:11.973Z,18.90
2023-05-08T15:55:40.264Z,18.97
2023-05-08T15:58:08.986Z,18.93
2023-05-08T16:00:44.802Z,18.99
2023-05-08T16:03:16.116Z,19.19
2023-05-08T16:05:44.302Z,18.89
2023-05-08T16:08:13.668Z,18.98
2023-05-08T16:10:42.720Z,19.20
2023-05-08T16:13:10.986Z,19.37
2023-05-08T16:15:39.254Z,19.03
2023-05-08T16:18:08.616Z,18.78
2023-05-08T16:20:41.568Z,18.67
2023-05-08T16:23:10.372Z,18.55
2023-05-08T16:25:38.908Z,18.80
2023-05-08T16:28:07.576Z,19.06
2023-05-08T16:30:36.827Z,18.99
2023-05-08T16:33:05.433Z,18.71
2023-05-08T16:35:33.909Z,18.48
2023-05-08T16:38:04.736Z,18.22
2023-05-08T16:40:33.016Z,18.03
2023-05-08T16:43:03.598Z,18.17
2023-05-08T16:45:31.799Z,18.13
2023-05-08T16:48:00.296Z,18.52
2023-05-08T16:50:31.158Z,18.50
2023-05-08T16:52:59.480Z,18.12
2023-05-08T16:55:29.147Z,18.25
2023-05-08T16:57:57.500Z,18.64
2023-05-08T17:00:26.216Z,18.47
2023-05-08T17:02:54.711Z,18.35
2023-05-08T17:05:23.298Z,18.32
2023-05-08T17:07:52.098Z,18.20
2023-05-08T17:10:20.617Z,18.15
2023-05-08T17:12:51.731Z,17.98
2023-05-08T17:15:21.293Z,17.96
2023-05-08T17:17:51.297Z,17.97
2023-05-08T17:20:20.033Z,17.94
2023-05-08T17:22:48.829Z,17.88
2023-05-08T17:25:17.265Z,17.98
2023-05-08T17:27:45.699Z,17.90
2023-05-08T17:30:16.887Z,17.83
2023-05-08T17:32:46.430Z,17.58
2023-05-08T17:35:14.923Z,17.76
2023-05-08T17:37:43.497Z,17.50
2023-05-08T17:40:13.456Z,17.37
2023-05-08T17:42:41.842Z,17.43
2023-05-08T17:45:11.678Z,17.29
2023-05-08T17:47:41.265Z,17.38
2023-05-08T17:50:10.023Z,17.36
2023-05-08T17:52:38.728Z,17.24
2023-05-08T17:55:08.363Z,17.26
2023-05-08T17:57:36.659Z,17.25
2023-05-08T18:00:08.194Z,17.27
2023-05-08T18:02:50.711Z,17.17
2023-05-08T18:05:19.333Z,17.01
2023-05-08T18:07:48.594Z,17.00
2023-05-08T18:10:17.011Z,16.96
2023-05-08T18:12:48.101Z,16.99
2023-05-08T18:15:16.630Z,16.91
2023-05-08T18:17:45.076Z,16.86
2023-05-08T18:20:15.917Z,16.75
2023-05-08T18:22:45.246Z,16.66
2023-05-08T18:25:13.508Z,16.58
2023-05-08T18:27:42.993Z,16.50
2023-05-08T18:30:12.177Z,16.40
2023-05-08T18:32:42.656Z,16.29
2023-05-08T18:35:10.961Z,16.21
2023-05-08T18:37:40.741Z,16.10
2023-05-08T18:40:09.926Z,16.01
2023-05-08T18:42:38.405Z,15.91
2023-05-08T18:45:07.665Z,15.86
2023-05-08T18:47:35.993Z,15.78
2023-05-08T18:50:04.893Z,15.73
2023-05-08T18:52:33.323Z,15.63
2023-05-08T18:55:04.023Z,15.54
2023-05-08T18:57:32.216Z,15.43
2023-05-08T19:00:00.377Z,15.30
2023-05-08T19:02:28.836Z,15.19
2023-05-08T19:04:57.653Z,15.08
2023-05-08T19:07:26.118Z,15.00
2023-05-08T19:09:55.648Z,14.97
2023-05-08T19:12:26.436Z,14.98
2023-05-08T19:14:56.007Z,15.00
2023-05-08T19:17:24.893Z,15.08
2023-05-08T19:19:53.063Z,15.14
2023-05-08T19:22:21.800Z,15.12
2023-05-08T19:24:50.299Z,15.11
2023-05-08T19:27:18.878Z,15.11
2023-05-08T19:29:48.514Z,15.16
2023-05-08T19:32:17.000Z,15.11
2023-05-08T19:34:45.147Z,15.09
2023-05-08T19:37:13.313Z,15.04
2023-05-08T19:39:41.826Z,14.99
2023-05-08T19:42:13.616Z,14.98
2023-05-08T19:44:42.089Z,14.88
2023-05-08T19:47:11.922Z,14.93
2023-05-08T19:49:40.044Z,14.84
2023-05-08T19:52:08.329Z,14.80
2023-05-08T19:54:36.630Z,14.70
2023-05-08T19:57:05.700Z,14.69
2023-05-08T19:59:33.982Z,14.66
2023-05-08T20:02:03.929Z,14.63
2023-05-08T20:04:40.049Z,14.66
2023-05-08T20:07:20.365Z,14.65
2023-05-08T20:09:48.780Z,14.65
2023-05-08T20:12:16.982Z,14.70
2023-05-08T20:14:45.264Z,14.64
2023-05-08T20:17:13.350Z,14.69
2023-05-08T20:19:43.191Z,14.65
2023-05-08T20:22:11.948Z,14.68
2023-05-08T20:24:40.094Z,14.72
2023-05-08T20:27:08.848Z,14.73
2023-05-08T20:29:37.015Z,14.74
2023-05-08T20:32:07.563Z,14.77
2023-05-08T20:34:36.938Z,14.77
2023-05-08T20:37:06.824Z,14.75
2023-05-08T20:39:35.572Z,14.77
2023-05-08T20:42:03.711Z,14.73
2023-05-08T20:44:32.118Z,14.73
2023-05-08T20:47:01.422Z,14.80
2023-05-08T20:49:29.516Z,14.80
2023-05-08T20:51:57.732Z,14.77
2023-05-08T20:54:27.694Z,14.75
2023-05-08T20:56:56.779Z,14.75
2023-05-08T20:59:25.396Z,14.78
2023-05-08T21:01:56.487Z,14.76
2023-05-08T21:04:25.176Z,14.75
2023-05-08T21:06:53.397Z,14.72
2023-05-08T21:09:21.868Z,14.75
2023-05-08T21:11:53.479Z,14.70
2023-05-08T21:14:23.753Z,14.71
2023-05-08T21:16:53.899Z,14.69
2023-05-08T21:19:22.587Z,14.70
2023-05-08T21:21:51.194Z,14.68
2023-05-08T21:24:19.629Z,14.67
2023-05-08T21:26:48.092Z,14.65
2023-05-08T21:29:18.189Z,14.62
2023-05-08T21:31:46.341Z,14.59
2023-05-08T21:34:17.262Z,14.58
2023-05-08T21:36:45.725Z,14.61
2023-05-08T21:39:15.708Z,14.59
2023-05-08T21:41:44.412Z,14.59
2023-05-08T21:44:12.817Z,14.57
2023-05-08T21:46:44.547Z,14.58
2023-05-08T21:49:12.925Z,14.55
2023-05-08T21:51:41.118Z,14.58
2023-05-08T21:54:10.170Z,14.59
2023-05-08T21:56:38.384Z,14.59
2023-05-08T21:59:07.538Z,14.59
2023-05-08T22:01:35.762Z,14.62
2023-05-08T22:04:08.962Z,14.60
2023-05-08T22:06:38.363Z,14.61
2023-05-08T22:09:07.554Z,14.59
2023-05-08T22:11:36.351Z,14.58
2023-05-08T22:14:04.642Z,14.56
2023-05-08T22:16:33.146Z,14.56
2023-05-08T22:19:01.420Z,14.55
2023-05-08T22:21:31.224Z,14.52
2023-05-08T22:23:59.512Z,14.50
2023-05-08T22:26:28.669Z,14.47
2023-05-08T22:28:57.093Z,14.43
2023-05-08T22:31:25.691Z,14.41
2023-05-08T22:33:55.479Z,14.39
2023-05-08T22:36:25.855Z,14.36
2023-05-08T22:38:55.386Z,14.31
2023-05-08T22:41:23.751Z,14.27
2023-05-08T22:43:52.276Z,14.28
2023-05-08T22:46:20.929Z,14.29
2023-05-08T22:48:49.856Z,14.29
2023-05-08T22:51:18.732Z,14.30
2023-05-08T22:53:48.473Z,14.31
2023-05-08T22:56:18.008Z,14.31
2023-05-08T22:58:47.104Z,14.32
2023-05-08T23:01:17.274Z,14.29
2023-05-08T23:03:47.990Z,14.27
2023-05-08T23:06:16.719Z,14.22
2023-05-08T23:08:44.916Z,14.19
2023-05-08T23:11:13.863Z,14.19
2023-05-08T23:13:43.703Z,14.17
2023-05-08T23:16:11.992Z,14.17
2023-05-08T23:18:40.530Z,14.16
2023-05-08T23:21:09.601Z,14.15
2023-05-08T23:23:37.712Z,14.14
2023-05-08T23:26:06.737Z,14.16
2023-05-08T23:28:36.158Z,14.22
2023-05-08T23:31:08.328Z,14.29
2023-05-08T23:33:36.848Z,14.34
2023-05-08T23:36:06.100Z,14.34
2023-05-08T23:38:34.343Z,14.36
2023-05-08T23:41:03.094Z,14.33
2023-05-08T23:43:32.002Z,14.31
2023-05-08T23:46:00.847Z,14.27
2023-05-08T23:48:30.820Z,14.27
2023-05-08T23:50:59.337Z,14.27
2023-05-08T23:53:27.705Z,14.29
2023-05-08T23:55:57.674Z,14.31
2023-05-08T23:58:26.274Z,14.32
